createdAt,value
2023-01-09T00:00:09.926Z,98710.69
2023-01-09T00:02:40.575Z,98702.47
2023-01-09T00:05:11.434Z,98697.47
2023-01-09T00:07:38.115Z,98683.22
2023-01-09T00:10:05.525Z,98689.59
2023-01-09T00:12:33.356Z,98687.97
2023-01-09T00:14:59.926Z,98687.97
2023-01-09T00:17:26.485Z,98681.63
2023-01-09T00:19:53.013Z,98678.88
2023-01-09T00:22:19.907Z,98683.94
2023-01-09T00:24:46.512Z,98682.50
2023-01-09T00:27:14.246Z,98678.53
2023-01-09T00:29:49.419Z,98685.97
2023-01-09T00:32:16.229Z,98682.84
2023-01-09T00:34:45.554Z,98665.03
2023-01-09T00:37:12.778Z,98673.81
2023-01-09T00:39:39.588Z,98664.25
2023-01-09T00:42:06.858Z,98666.28
2023-01-09T00:44:36.717Z,98675.31
2023-01-09T00:47:07.747Z,98670.63
2023-01-09T00:49:35.226Z,98667.47
2023-01-09T00:52:02.317Z,98683.56
2023-01-09T00:54:28.933Z,98672.50
2023-01-09T00:56:58.676Z,98655.41
2023-01-09T00:59:25.300Z,98671.34
2023-01-09T01:01:52.009Z,98663.53
2023-01-09T01:04:37.488Z,98661.97
2023-01-09T01:07:22.361Z,98650.06
2023-01-09T01:09:48.913Z,98658.38
2023-01-09T01:12:15.488Z,98657.97
2023-01-09T01:14:42.055Z,98656.81
2023-01-09T01:17:08.642Z,98657.97
2023-01-09T01:19:35.370Z,98653.91
2023-01-09T01:22:02.126Z,98657.97
2023-01-09T01:24:28.799Z,98661.06
2023-01-09T01:26:55.341Z,98623.50
2023-01-09T01:29:21.903Z,98662.41
2023-01-09T01:31:48.474Z,98668.41
2023-01-09T01:34:15.029Z,98662.41
2023-01-09T01:36:41.596Z,98670.47
2023-01-09T01:39:08.109Z,98678.34
2023-01-09T01:41:34.709Z,98683.03
2023-01-09T01:44:06.776Z,98679.16
2023-01-09T01:46:33.914Z,98681.44
2023-01-09T01:49:07.374Z,98683.84
2023-01-09T01:51:37.406Z,98690.84
2023-01-09T01:54:06.587Z,98684.03
2023-01-09T01:56:37.064Z,98686.06
2023-01-09T01:59:11.194Z,98692.34
2023-01-09T02:01:40.891Z,98689.75
2023-01-09T02:04:07.631Z,98684.38
2023-01-09T02:06:34.424Z,98693.84
2023-01-09T02:09:04.852Z,98687.47
2023-01-09T02:11:31.366Z,98689.97
2023-01-09T02:14:00.800Z,98681.03
2023-01-09T02:16:42.945Z,98677.44
2023-01-09T02:19:34.310Z,98668.88
2023-01-09T02:22:15.910Z,98663.38
2023-01-09T02:25:11.199Z,98629.47
2023-01-09T02:28:05.156Z,98668.41
2023-01-09T02:30:44.960Z,98689.25
2023-01-09T02:33:37.823Z,98685.28
2023-01-09T02:36:28.967Z,98693.75
2023-01-09T02:39:27.299Z,98682.97
2023-01-09T02:42:19.042Z,98690.69
2023-01-09T02:44:45.576Z,98680.66
2023-01-09T02:47:14.906Z,98677.66
2023-01-09T02:49:55.291Z,98667.91
2023-01-09T02:52:33.094Z,98688.97
2023-01-09T02:55:22.520Z,98691.81
2023-01-09T02:58:07.295Z,98702.38
2023-01-09T03:00:51.865Z,98714.06
2023-01-09T03:03:21.568Z,98719.56
2023-01-09T03:05:57.203Z,98728.13
2023-01-09T03:08:26.293Z,98726.91
2023-01-09T03:11:02.714Z,98733.28
2023-01-09T03:13:31.488Z,98747.72
2023-01-09T03:15:58.120Z,98744.09
2023-01-09T03:18:25.204Z,98760.19
2023-01-09T03:20:51.894Z,98771.97
2023-01-09T03:23:18.461Z,98779.09
2023-01-09T03:25:45.033Z,98740.72
2023-01-09T03:28:28.890Z,98782.72
2023-01-09T03:30:55.468Z,98783.41
2023-01-09T03:33:22.071Z,98787.75
2023-01-09T03:35:48.650Z,98738.84
2023-01-09T03:38:15.221Z,98794.41
2023-01-09T03:40:43.360Z,98795.56
2023-01-09T03:43:09.924Z,98761.28
2023-01-09T03:45:36.588Z,98800.69
2023-01-09T03:48:03.203Z,98802.28
2023-01-09T03:50:29.750Z,98780.97
2023-01-09T03:52:56.302Z,98823.47
2023-01-09T03:55:22.852Z,98798.13
2023-01-09T03:57:49.364Z,98836.75
2023-01-09T04:00:16.060Z,98842.25
2023-01-09T04:02:43.185Z,98850.91
2023-01-09T04:05:09.939Z,98867.19
2023-01-09T04:07:36.733Z,98832.97
2023-01-09T04:10:03.401Z,98885.72
2023-01-09T04:12:29.983Z,98890.44
2023-01-09T04:14:56.573Z,98897.88
2023-01-09T04:17:23.140Z,98905.75
2023-01-09T04:19:50.724Z,98913.19
2023-01-09T04:22:17.237Z,98885.31
2023-01-09T04:24:43.803Z,98914.25
2023-01-09T04:27:12.153Z,98933.69
2023-01-09T04:29:38.723Z,98849.94
2023-01-09T04:32:05.458Z,98927.38
2023-01-09T04:34:32.900Z,98911.03
2023-01-09T04:36:59.431Z,98945.25
2023-01-09T04:39:25.923Z,98950.16
2023-01-09T04:41:55.438Z,98949.16
2023-01-09T04:44:22.999Z,98971.66
2023-01-09T04:46:49.647Z,98980.69
2023-01-09T04:49:16.303Z,98995.13
2023-01-09T04:51:42.822Z,98997.88
2023-01-09T04:54:09.455Z,98970.22
2023-01-09T04:56:36.465Z,99003.72
2023-01-09T04:59:03.681Z,99000.75
2023-01-09T05:01:30.481Z,99012.41
2023-01-09T05:03:57.153Z,99006.56
2023-01-09T05:06:23.733Z,99004.31
2023-01-09T05:08:50.279Z,99019.16
2023-01-09T05:11:16.856Z,98990.69
2023-01-09T05:13:43.407Z,99032.44
2023-01-09T05:16:09.968Z,99017.09
2023-01-09T05:18:36.634Z,99035.41
2023-01-09T05:21:03.251Z,99042.63
2023-01-09T05:23:29.796Z,99031.88
2023-01-09T05:25:56.360Z,99032.13
2023-01-09T05:28:22.985Z,99048.56
2023-01-09T05:30:49.592Z,99043.44
2023-01-09T05:33:16.161Z,99047.31
2023-01-09T05:35:42.700Z,99047.75
2023-01-09T05:38:09.271Z,99047.31
2023-01-09T05:40:40.420Z,99050.28
2023-01-09T05:43:07.316Z,99063.56
2023-01-09T05:45:34.026Z,99066.31
2023-01-09T05:48:00.652Z,99068.59
2023-01-09T05:50:27.216Z,99081.88
2023-01-09T05:52:53.808Z,99092.06
2023-01-09T05:55:20.435Z,99091.25
2023-01-09T05:57:46.966Z,99045.69
2023-01-09T06:00:14.309Z,99097.19
2023-01-09T06:02:40.951Z,99111.72
2023-01-09T06:05:08.346Z,99107.03
2023-01-09T06:07:39.174Z,99118.03
2023-01-09T06:10:07.895Z,99110.47
2023-01-09T06:12:34.435Z,99120.56
2023-01-09T06:15:01.016Z,99114.16
2023-01-09T06:17:27.669Z,99109.44
2023-01-09T06:19:54.301Z,99126.47
2023-01-09T06:22:20.907Z,99122.72
2023-01-09T06:24:47.528Z,99101.75
2023-01-09T06:27:14.132Z,99121.34
2023-01-09T06:29:40.682Z,99119.63
2023-01-09T06:32:07.192Z,99121.91
2023-01-09T06:34:33.720Z,99124.44
2023-01-09T06:37:00.238Z,99120.31
2023-01-09T06:39:26.762Z,99133.13
2023-01-09T06:41:53.304Z,99110.94
2023-01-09T06:44:19.831Z,99131.66
2023-01-09T06:46:46.328Z,99125.34
2023-01-09T06:49:12.863Z,99132.69
2023-01-09T06:51:39.427Z,99145.72
2023-01-09T06:54:05.983Z,99135.06
2023-01-09T06:56:32.520Z,99126.38
2023-01-09T06:58:59.145Z,99140.09
2023-01-09T07:01:25.809Z,99133.13
2023-01-09T07:03:52.464Z,99137.03
2023-01-09T07:06:20.073Z,99142.53
2023-01-09T07:08:47.910Z,99134.63
2023-01-09T07:11:14.628Z,99132.81
2023-01-09T07:13:41.223Z,99128.91
2023-01-09T07:16:08.076Z,99117.09
2023-01-09T07:18:34.744Z,99128.44
2023-01-09T07:21:01.275Z,99136.56
2023-01-09T07:23:28.029Z,99134.28
2023-01-09T07:25:54.576Z,99127.28
2023-01-09T07:28:21.179Z,99145.72
2023-01-09T07:30:47.772Z,99144.59
2023-01-09T07:33:14.313Z,99129.69
2023-01-09T07:35:40.905Z,99152.59
2023-01-09T07:38:07.438Z,99132.91
2023-01-09T07:40:34.227Z,99141.50
2023-01-09T07:43:00.759Z,99165.19
2023-01-09T07:45:27.293Z,99152.59
2023-01-09T07:47:53.919Z,99160.84
2023-01-09T07:50:20.611Z,99159.69
2023-01-09T07:52:47.116Z,99166.09
2023-01-09T07:55:15.584Z,99164.03
2023-01-09T07:57:43.273Z,99153.28
2023-01-09T08:00:11.015Z,99161.06
2023-01-09T08:02:40.561Z,99170.69
2023-01-09T08:05:08.934Z,99172.25
2023-01-09T08:07:35.512Z,99164.94
2023-01-09T08:10:02.172Z,99164.28
2023-01-09T08:12:28.785Z,99150.03
2023-01-09T08:14:55.373Z,99161.72
2023-01-09T08:17:21.918Z,99163.34
2023-01-09T08:19:48.445Z,99158.78
2023-01-09T08:22:15.049Z,99154.75
2023-01-09T08:24:41.627Z,99154.88
2023-01-09T08:27:08.282Z,99127.81
2023-01-09T08:29:34.871Z,99160.84
2023-01-09T08:32:01.487Z,99159.91
2023-01-09T08:34:28.224Z,99160.25
2023-01-09T08:36:54.899Z,99161.16
2023-01-09T08:39:21.547Z,99176.84
2023-01-09T08:42:06.485Z,99168.13
2023-01-09T08:44:51.877Z,99173.63
2023-01-09T08:47:20.075Z,99160.69
2023-01-09T08:49:46.637Z,99180.16
2023-01-09T08:52:13.753Z,99181.88
2023-01-09T08:54:40.362Z,99175.25
2023-01-09T08:57:07.431Z,99196.44
2023-01-09T08:59:34.048Z,99186.69
2023-01-09T09:02:00.825Z,99165.69
2023-01-09T09:04:27.476Z,99202.94
2023-01-09T09:06:54.068Z,99196.16
2023-01-09T09:09:20.686Z,99204.88
2023-01-09T09:11:47.305Z,99171.06
2023-01-09T09:14:39.819Z,99211.84
2023-01-09T09:17:06.421Z,99208.88
2023-01-09T09:19:32.993Z,99207.53
2023-01-09T09:21:59.625Z,99191.50
2023-01-09T09:24:26.316Z,99189.56
2023-01-09T09:26:52.920Z,99205.09
2023-01-09T09:29:19.495Z,99203.66
2023-01-09T09:31:46.072Z,99203.81
2023-01-09T09:34:13.231Z,99202.00
2023-01-09T09:36:39.921Z,99170.50
2023-01-09T09:39:07.481Z,99199.00
2023-01-09T09:42:15.244Z,99189.34
2023-01-09T09:45:13.099Z,99195.41
2023-01-09T09:47:51.860Z,99208.47
2023-01-09T09:50:24.332Z,99208.72
2023-01-09T09:52:59.730Z,99213.66
2023-01-09T09:55:32.922Z,99213.00
2023-01-09T09:58:01.059Z,99214.25
2023-01-09T10:00:28.019Z,99221.81
2023-01-09T10:03:06.091Z,99217.94
2023-01-09T10:05:37.897Z,99212.19
2023-01-09T10:08:25.728Z,99228.72
2023-01-09T10:10:55.324Z,99225.50
2023-01-09T10:13:42.532Z,99225.97
2023-01-09T10:16:36.204Z,99226.41
2023-01-09T10:19:40.317Z,99223.66
2023-01-09T10:22:13.796Z,99231.22
2023-01-09T10:24:52.968Z,99213.38
2023-01-09T10:27:53.977Z,99203.88
2023-01-09T10:30:42.313Z,99227.47
2023-01-09T10:33:11.834Z,99226.34
2023-01-09T10:35:48.013Z,99225.53
2023-01-09T10:38:18.014Z,99212.94
2023-01-09T10:40:51.518Z,99189.13
2023-01-09T10:43:38.482Z,99211.56
2023-01-09T10:46:07.881Z,99211.34
2023-01-09T10:48:36.586Z,99213.88
2023-01-09T10:51:05.200Z,99206.44
2023-01-09T10:53:38.572Z,99208.59
2023-01-09T10:56:26.115Z,99215.47
2023-01-09T10:58:53.648Z,99204.94
2023-01-09T11:01:31.335Z,99217.75
2023-01-09T11:04:02.292Z,99214.56
2023-01-09T11:06:43.633Z,99204.13
2023-01-09T11:09:10.286Z,99209.97
2023-01-09T11:11:38.910Z,99207.72
2023-01-09T11:14:17.532Z,99208.66
2023-01-09T11:17:05.449Z,99204.06
2023-01-09T11:19:33.314Z,99186.69
2023-01-09T11:22:08.662Z,99198.47
2023-01-09T11:24:35.222Z,99198.88
2023-01-09T11:27:23.149Z,99203.81
2023-01-09T11:30:15.657Z,99205.53
2023-01-09T11:32:42.676Z,99208.13
2023-01-09T11:35:19.916Z,99218.66
2023-01-09T11:37:46.513Z,99220.72
2023-01-09T11:40:20.452Z,99231.22
2023-01-09T11:43:32.969Z,99220.97
2023-01-09T11:46:23.585Z,99214.69
2023-01-09T11:48:54.957Z,99206.75
2023-01-09T11:51:29.335Z,99216.38
2023-01-09T11:54:17.614Z,99217.00
2023-01-09T11:56:44.202Z,99211.84
2023-01-09T11:59:15.079Z,99218.97
2023-01-09T12:02:10.295Z,99212.06
2023-01-09T12:04:55.718Z,99217.84
2023-01-09T12:07:36.611Z,99225.72
2023-01-09T12:10:34.325Z,99212.09
2023-01-09T12:13:23.115Z,99209.34
2023-01-09T12:16:15.942Z,99205.47
2023-01-09T12:19:02.207Z,99202.28
2023-01-09T12:21:35.998Z,99186.78
2023-01-09T12:24:05.294Z,99190.38
2023-01-09T12:26:32.645Z,99200.22
2023-01-09T12:29:29.981Z,99194.03
2023-01-09T12:32:41.535Z,99206.63
2023-01-09T12:35:22.976Z,99200.19
2023-01-09T12:38:16.892Z,99198.03
2023-01-09T12:40:56.980Z,99214.03
2023-01-09T12:43:54.423Z,99215.53
2023-01-09T12:46:24.638Z,99221.81
2023-01-09T12:49:19.241Z,99220.00
2023-01-09T12:52:07.614Z,99215.53
2023-01-09T12:54:51.778Z,99231.34
2023-01-09T12:57:24.797Z,99223.91
2023-01-09T12:59:52.767Z,99233.53
2023-01-09T13:02:35.032Z,99233.00
2023-01-09T13:05:06.846Z,99217.69
2023-01-09T13:07:41.957Z,99220.66
2023-01-09T13:10:27.856Z,99218.84
2023-01-09T13:12:54.480Z,99222.69
2023-01-09T13:15:33.030Z,99229.56
2023-01-09T13:18:25.859Z,99242.63
2023-01-09T13:20:53.887Z,99238.06
2023-01-09T13:23:26.587Z,99238.97
2023-01-09T13:25:54.619Z,99227.75
2023-01-09T13:28:23.447Z,99244.72
2023-01-09T13:31:26.384Z,99249.78
2023-01-09T13:33:57.676Z,99238.59
2023-01-09T13:36:25.651Z,99240.38
2023-01-09T13:38:52.242Z,99248.19
2023-01-09T13:41:37.499Z,99229.69
2023-01-09T13:44:06.155Z,99237.72
2023-01-09T13:46:43.538Z,99250.09
2023-01-09T13:49:29.015Z,99257.97
2023-01-09T13:51:58.305Z,99239.03
2023-01-09T13:54:46.893Z,99270.22
2023-01-09T13:57:19.402Z,99270.22
2023-01-09T13:59:49.328Z,99274.56
2023-01-09T14:02:34.603Z,99278.16
2023-01-09T14:05:24.292Z,99278.25
2023-01-09T14:08:31.657Z,99267.97
2023-01-09T14:11:02.130Z,99282.81
2023-01-09T14:13:30.897Z,99263.56
2023-01-09T14:16:24.503Z,99284.75
2023-01-09T14:19:00.568Z,99281.22
2023-01-09T14:21:27.302Z,99241.75
2023-01-09T14:24:04.439Z,99296.09
2023-01-09T14:26:46.912Z,99308.00
2023-01-09T14:29:40.254Z,99319.19
2023-01-09T14:32:33.711Z,99326.63
2023-01-09T14:35:03.249Z,99330.09
2023-01-09T14:37:30.502Z,99336.81
2023-01-09T14:39:57.246Z,99330.88
2023-01-09T14:42:25.547Z,99335.53
2023-01-09T14:45:03.448Z,99354.09
2023-01-09T14:47:39.436Z,99342.53
2023-01-09T14:50:17.160Z,99343.38
2023-01-09T14:53:12.419Z,99366.09
2023-01-09T14:55:42.480Z,99362.44
2023-01-09T14:58:13.046Z,99372.91
2023-01-09T15:00:48.315Z,99360.53
2023-01-09T15:03:16.162Z,99381.66
2023-01-09T15:05:44.146Z,99382.63
2023-01-09T15:08:13.785Z,99395.38
2023-01-09T15:10:40.611Z,99390.53
2023-01-09T15:13:07.831Z,99385.84
2023-01-09T15:15:36.082Z,99392.66
2023-01-09T15:18:07.776Z,99400.38
2023-01-09T15:20:34.808Z,99405.56
2023-01-09T15:23:03.643Z,99403.63
2023-01-09T15:25:38.785Z,99406.38
2023-01-09T15:28:28.805Z,99404.56
2023-01-09T15:31:07.034Z,99411.19
2023-01-09T15:33:34.072Z,99397.34
2023-01-09T15:36:02.445Z,99407.97
2023-01-09T15:38:30.788Z,99398.78
2023-01-09T15:41:39.036Z,99408.09
2023-01-09T15:44:06.397Z,99405.03
2023-01-09T15:46:33.103Z,99413.72
2023-01-09T15:48:59.833Z,99408.22
2023-01-09T15:51:26.521Z,99415.53
2023-01-09T15:53:54.695Z,99403.13
2023-01-09T15:56:24.156Z,99420.81
2023-01-09T15:58:51.874Z,99434.53
2023-01-09T16:01:30.627Z,99423.25
2023-01-09T16:04:16.392Z,99428.19
2023-01-09T16:06:50.425Z,99433.56
2023-01-09T16:09:22.800Z,99439.03
2023-01-09T16:11:52.699Z,99437.59
2023-01-09T16:14:24.880Z,99434.53
2023-01-09T16:16:52.037Z,99447.75
2023-01-09T16:19:46.656Z,99451.56
2023-01-09T16:22:29.945Z,99459.81
2023-01-09T16:24:57.474Z,99467.16
2023-01-09T16:27:28.580Z,99478.69
2023-01-09T16:30:08.545Z,99431.91
2023-01-09T16:32:37.230Z,99483.59
2023-01-09T16:35:16.607Z,99484.84
2023-01-09T16:37:43.261Z,99444.53
2023-01-09T16:40:18.666Z,99501.47
2023-01-09T16:43:00.647Z,99502.97
2023-01-09T16:45:29.033Z,99507.94
2023-01-09T16:47:57.153Z,99511.00
2023-01-09T16:50:24.871Z,99516.50
2023-01-09T16:52:51.888Z,99505.38
2023-01-09T16:55:18.456Z,99507.75
2023-01-09T16:57:45.144Z,99503.78
2023-01-09T17:00:18.293Z,99521.31
2023-01-09T17:02:45.298Z,99496.50
2023-01-09T17:05:11.984Z,99533.41
2023-01-09T17:07:38.516Z,99524.06
2023-01-09T17:10:05.985Z,99530.88
2023-01-09T17:12:32.625Z,99544.94
2023-01-09T17:15:01.304Z,99548.13
2023-01-09T17:17:27.907Z,99508.19
2023-01-09T17:19:54.453Z,99554.53
2023-01-09T17:22:21.119Z,99553.53
2023-01-09T17:25:08.707Z,99558.03
2023-01-09T17:27:55.065Z,99529.41
2023-01-09T17:30:21.729Z,99572.88
2023-01-09T17:32:48.588Z,99566.28
2023-01-09T17:35:15.798Z,99584.81
2023-01-09T17:37:42.613Z,99584.50
2023-01-09T17:40:20.009Z,99581.09
2023-01-09T17:42:46.783Z,99582.69
2023-01-09T17:45:13.524Z,99598.50
2023-01-09T17:47:40.167Z,99595.75
2023-01-09T17:50:07.175Z,99610.44
2023-01-09T17:52:33.826Z,99603.34
2023-01-09T17:55:05.259Z,99592.25
2023-01-09T17:57:32.593Z,99615.44
2023-01-09T18:00:00.481Z,99632.41
2023-01-09T18:02:27.265Z,99638.84
2023-01-09T18:04:53.944Z,99640.78
2023-01-09T18:07:20.723Z,99634.38
2023-01-09T18:09:47.406Z,99659.34
2023-01-09T18:12:14.142Z,99668.88
2023-01-09T18:14:42.040Z,99666.97
2023-01-09T18:17:09.189Z,99669.53
2023-01-09T18:19:35.922Z,99658.72
2023-01-09T18:22:03.797Z,99693.41
2023-01-09T18:24:30.407Z,99694.56
2023-01-09T18:26:57.083Z,99699.03
2023-01-09T18:29:24.081Z,99694.06
2023-01-09T18:31:51.749Z,99701.47
2023-01-09T18:34:18.464Z,99711.69
2023-01-09T18:36:45.642Z,99699.41
2023-01-09T18:39:12.287Z,99713.41
2023-01-09T18:41:38.923Z,99715.84
2023-01-09T18:44:05.616Z,99717.31
2023-01-09T18:46:32.582Z,99708.44
2023-01-09T18:49:03.137Z,99742.63
2023-01-09T18:51:30.171Z,99731.06
2023-01-09T18:53:57.097Z,99737.97
2023-01-09T18:56:24.732Z,99709.63
2023-01-09T18:58:55.194Z,99748.28
2023-01-09T19:01:22.529Z,99737.50
2023-01-09T19:03:49.663Z,99754.75
2023-01-09T19:06:16.283Z,99755.88
2023-01-09T19:08:43.195Z,99755.41
2023-01-09T19:11:09.888Z,99764.59
2023-01-09T19:13:36.844Z,99771.38
2023-01-09T19:16:04.229Z,99772.69
2023-01-09T19:18:36.633Z,99785.94
2023-01-09T19:21:14.585Z,99790.50
2023-01-09T19:23:41.834Z,99795.50
2023-01-09T19:26:08.951Z,99795.50
2023-01-09T19:28:36.310Z,99790.66
2023-01-09T19:31:03.083Z,99800.19
2023-01-09T19:33:29.799Z,99802.78
2023-01-09T19:35:56.604Z,99804.75
2023-01-09T19:38:23.718Z,99806.69
2023-01-09T19:40:50.518Z,99811.03
2023-01-09T19:43:25.992Z,99802.97
2023-01-09T19:45:55.959Z,99808.28
2023-01-09T19:48:23.344Z,99809.75
2023-01-09T19:50:50.073Z,99796.53
2023-01-09T19:53:17.030Z,99824.28
2023-01-09T19:55:43.681Z,99824.78
2023-01-09T19:58:11.050Z,99826.59
2023-01-09T20:00:37.723Z,99821.09
2023-01-09T20:03:04.442Z,99824.28
2023-01-09T20:05:31.095Z,99825.59
2023-01-09T20:07:57.912Z,99831.28
2023-01-09T20:10:24.555Z,99823.19
2023-01-09T20:12:51.540Z,99841.44
2023-01-09T20:15:18.233Z,99846.13
2023-01-09T20:17:44.932Z,99850.19
2023-01-09T20:20:11.788Z,99857.94
2023-01-09T20:22:38.403Z,99856.97
2023-01-09T20:25:07.910Z,99864.41
2023-01-09T20:27:34.685Z,99869.22
2023-01-09T20:30:01.257Z,99881.84
2023-01-09T20:32:29.935Z,99876.06
2023-01-09T20:34:57.158Z,99883.03
2023-01-09T20:37:23.846Z,99873.72
2023-01-09T20:39:52.923Z,99885.78
2023-01-09T20:42:19.491Z,99898.72
2023-01-09T20:44:46.137Z,99900.34
2023-01-09T20:47:12.781Z,99862.38
2023-01-09T20:49:42.324Z,99875.31
2023-01-09T20:52:08.989Z,99890.34
2023-01-09T20:54:41.108Z,99902.47
2023-01-09T20:57:07.797Z,99894.22
2023-01-09T20:59:35.103Z,99908.75
2023-01-09T21:02:01.979Z,99915.22
2023-01-09T21:04:31.255Z,99921.53
2023-01-09T21:06:57.978Z,99927.84
2023-01-09T21:09:26.071Z,99900.50
2023-01-09T21:11:52.764Z,99938.34
2023-01-09T21:14:20.075Z,99934.63
2023-01-09T21:16:54.589Z,99945.28
2023-01-09T21:19:22.315Z,99948.53
2023-01-09T21:21:50.344Z,99949.00
2023-01-09T21:24:18.233Z,99947.06
2023-01-09T21:26:44.786Z,99925.44
2023-01-09T21:29:11.884Z,99956.28
2023-01-09T21:31:38.607Z,99956.28
2023-01-09T21:34:06.934Z,99959.97
2023-01-09T21:36:35.281Z,99961.78
2023-01-09T21:39:02.205Z,99968.88
2023-01-09T21:41:49.081Z,99962.56
2023-01-09T21:44:34.193Z,99963.88
2023-01-09T21:47:01.590Z,99962.91
2023-01-09T21:49:31.154Z,99958.53
2023-01-09T21:51:58.029Z,99973.72
2023-01-09T21:54:24.655Z,99966.47
2023-01-09T21:56:51.937Z,99981.66
2023-01-09T21:59:18.787Z,99973.91
2023-01-09T22:01:45.404Z,99984.38
2023-01-09T22:04:13.545Z,99995.53
2023-01-09T22:06:40.267Z,99994.09
2023-01-09T22:09:06.865Z,100009.94
2023-01-09T22:11:33.439Z,99995.53
2023-01-09T22:14:00.402Z,99995.38
2023-01-09T22:16:27.319Z,99977.25
2023-01-09T22:18:54.993Z,100004.44
2023-01-09T22:21:22.371Z,100007.97
2023-01-09T22:23:49.195Z,99868.13
2023-01-09T22:26:16.089Z,100034.97
2023-01-09T22:28:42.999Z,99992.72
